createdAt,value
2018-05-02T00:02:07.400Z,19.4
2018-05-02T00:07:01.664Z,19.4
2018-05-02T00:11:55.754Z,19.3
2018-05-02T00:16:49.731Z,19.4
2018-05-02T00:21:43.622Z,19.3
2018-05-02T00:26:37.744Z,19.3
2018-05-02T00:31:31.870Z,19.4
2018-05-02T00:36:25.961Z,19.4
2018-05-02T00:41:20.145Z,19.4
2018-05-02T00:46:14.701Z,19.4
2018-05-02T00:51:08.761Z,19.3
2018-05-02T00:56:02.947Z,19.2
2018-05-02T01:00:57.480Z,19.4
2018-05-02T01:05:51.340Z,19.1
2018-05-02T01:10:45.666Z,19.1
2018-05-02T01:15:39.992Z,19
2018-05-02T01:20:34.216Z,19
2018-05-02T01:25:28.347Z,18.9
2018-05-02T01:30:21.668Z,18.8
2018-05-02T01:35:16.201Z,18.8
2018-05-02T01:40:10.309Z,18.8
2018-05-02T01:45:04.499Z,18.9
2018-05-02T01:49:59.242Z,18.9
2018-05-02T01:54:53.018Z,18.7
2018-05-02T01:59:47.836Z,18.8
2018-05-02T02:04:42.466Z,18.8
2018-05-02T02:09:36.688Z,18.8
2018-05-02T02:14:30.756Z,18.7
2018-05-02T02:19:25.090Z,18.7
2018-05-02T02:24:19.426Z,18.7
2018-05-02T02:29:13.938Z,18.7
2018-05-02T02:34:07.727Z,18.6
2018-05-02T02:39:01.488Z,18.6
2018-05-02T02:43:55.664Z,18.5
2018-05-02T02:48:49.777Z,18.5
2018-05-02T02:53:44.472Z,18.3
2018-05-02T02:58:38.533Z,18.4
2018-05-02T03:03:33.146Z,18.2
2018-05-02T03:08:26.980Z,18.3
2018-05-02T03:13:21.724Z,18.3
2018-05-02T03:18:16.033Z,18.2
2018-05-02T03:23:10.322Z,18.2
2018-05-02T03:28:04.185Z,18
2018-05-02T03:32:58.632Z,17.9
2018-05-02T03:37:52.666Z,17.9
2018-05-02T03:42:46.862Z,17.7
2018-05-02T03:47:41.425Z,17.7
2018-05-02T03:52:35.442Z,17.6
2018-05-02T03:57:29.265Z,17.5
2018-05-02T04:02:23.300Z,17.6
2018-05-02T04:07:17.987Z,17.5
2018-05-02T04:12:12.617Z,17.5
2018-05-02T04:17:06.400Z,17.4
2018-05-02T04:22:00.462Z,17.3
2018-05-02T04:26:54.525Z,17.4
2018-05-02T04:31:48.938Z,17.4
2018-05-02T04:36:42.573Z,17.5
2018-05-02T04:41:36.773Z,17.5
2018-05-02T04:46:31.581Z,17.6
2018-05-02T04:51:25.312Z,17.6
2018-05-02T04:56:19.397Z,17.4
2018-05-02T05:01:13.821Z,17.4
2018-05-02T05:06:08.201Z,17.6
2018-05-02T05:11:02.112Z,17.5
2018-05-02T05:15:55.841Z,17.6
2018-05-02T05:20:49.999Z,17.5
2018-05-02T05:25:44.018Z,17.6
2018-05-02T05:30:38.064Z,17.6
2018-05-02T05:35:33.043Z,17.8
2018-05-02T05:40:27.356Z,17.8
2018-05-02T05:45:21.743Z,17.8
2018-05-02T05:50:16.682Z,17.9
2018-05-02T05:55:10.963Z,17.9
2018-05-02T06:00:05.511Z,18
2018-05-02T06:05:00.136Z,18
2018-05-02T06:09:54.680Z,18.1
2018-05-02T06:14:48.746Z,18.1
2018-05-02T06:19:43.445Z,18.1
2018-05-02T06:24:37.947Z,18.2
2018-05-02T06:29:32.639Z,18.3
2018-05-02T06:34:27.400Z,18.3
2018-05-02T06:39:21.528Z,18.4
2018-05-02T06:44:15.969Z,18.6
2018-05-02T06:49:10.492Z,18.6
2018-05-02T06:54:04.654Z,18.8
2018-05-02T06:58:59.365Z,18.8
2018-05-02T07:03:53.257Z,18.9
2018-05-02T07:08:47.522Z,19
2018-05-02T07:13:42.045Z,19.1
2018-05-02T07:18:36.041Z,19.2
2018-05-02T07:23:28.222Z,19.3
2018-05-02T07:28:22.980Z,19.5
2018-05-02T07:33:17.344Z,19.5
2018-05-02T07:38:10.930Z,19.6
2018-05-02T07:43:05.281Z,19.7
2018-05-02T07:47:59.722Z,19.7
2018-05-02T07:52:54.241Z,19.9
2018-05-02T07:57:48.423Z,19.9
2018-05-02T08:02:43.041Z,19.9
2018-05-02T08:07:37.140Z,20
2018-05-02T08:12:31.834Z,20.1
2018-05-02T08:17:25.561Z,20.2
2018-05-02T08:22:20.309Z,20.3
2018-05-02T08:27:14.003Z,20.6
2018-05-02T08:32:08.118Z,20.6
2018-05-02T08:37:02.386Z,20.7
2018-05-02T08:41:56.369Z,20.9
2018-05-02T08:46:50.558Z,21
2018-05-02T08:51:44.747Z,21.1
2018-05-02T08:56:39.041Z,21.3
2018-05-02T09:01:33.402Z,21.5
2018-05-02T09:06:27.984Z,21.6
2018-05-02T09:11:22.007Z,21.7
2018-05-02T09:16:16.676Z,21.8
2018-05-02T09:21:15.025Z,21.9
2018-05-02T09:26:07.961Z,22.1
2018-05-02T09:31:02.624Z,22.1
2018-05-02T09:35:56.979Z,22.5
2018-05-02T09:40:50.867Z,22.9
2018-05-02T09:45:45.534Z,23.2
2018-05-02T09:50:39.936Z,23.4
2018-05-02T09:55:34.727Z,23.5
2018-05-02T10:00:29.527Z,23.7
2018-05-02T10:05:24.063Z,24.1
2018-05-02T10:10:18.249Z,24.2
2018-05-02T10:15:12.806Z,24.4
2018-05-02T10:20:07.585Z,24.4
2018-05-02T10:25:01.755Z,24.7
2018-05-02T10:29:56.136Z,24.7
2018-05-02T10:34:50.963Z,24.8
2018-05-02T10:39:45.596Z,24.8
2018-05-02T10:44:40.008Z,24.7
2018-05-02T10:49:34.678Z,24.9
2018-05-02T10:54:28.670Z,25.1
2018-05-02T10:59:22.810Z,25.1
2018-05-02T11:04:16.634Z,25.2
2018-05-02T11:09:10.860Z,25.4
2018-05-02T11:14:05.187Z,25.6
2018-05-02T11:18:59.552Z,25.9
2018-05-02T11:23:53.764Z,25.9
2018-05-02T11:28:47.977Z,26.1
2018-05-02T11:33:42.900Z,26.1
2018-05-02T11:38:36.986Z,26.3
2018-05-02T11:43:31.486Z,26.4
2018-05-02T11:48:25.609Z,26.5
2018-05-02T11:53:20.150Z,26.8
2018-05-02T11:58:14.808Z,27
2018-05-02T12:03:10.060Z,26.9
2018-05-02T12:08:04.492Z,27
2018-05-02T12:12:58.731Z,27.1
2018-05-02T12:17:53.182Z,27.2
2018-05-02T12:22:47.734Z,27.1
2018-05-02T12:27:41.860Z,27.2
2018-05-02T12:32:36.323Z,27.1
2018-05-02T12:37:30.654Z,27.2
2018-05-02T12:42:25.035Z,27.2
2018-05-02T12:47:19.388Z,27.2
2018-05-02T12:52:14.039Z,27.3
2018-05-02T12:57:08.345Z,27.3
2018-05-02T13:02:02.688Z,27.3
2018-05-02T13:06:57.640Z,27.3
2018-05-02T13:11:51.796Z,27.4
2018-05-02T13:16:46.245Z,27.4
2018-05-02T13:21:40.913Z,27.3
2018-05-02T13:26:35.357Z,27.3
2018-05-02T13:31:29.681Z,27.3
2018-05-02T13:36:23.866Z,27.3
2018-05-02T13:41:18.508Z,27.3
2018-05-02T13:46:12.731Z,27.4
2018-05-02T13:51:07.431Z,27.6
2018-05-02T13:56:02.136Z,27.7
2018-05-02T14:00:56.046Z,27.3
2018-05-02T14:05:50.189Z,26.9
2018-05-02T14:10:43.716Z,26.7
2018-05-02T14:15:37.681Z,26.4
2018-05-02T14:20:32.257Z,26.3
2018-05-02T14:25:26.251Z,26.2
2018-05-02T14:30:20.296Z,26.1
2018-05-02T14:35:14.738Z,26
2018-05-02T14:40:09.168Z,25.9
2018-05-02T14:45:03.253Z,25.7
2018-05-02T14:49:57.396Z,25.7
2018-05-02T14:54:51.352Z,25.6
2018-05-02T14:59:45.512Z,25.5
2018-05-02T15:04:40.274Z,25.4
2018-05-02T15:09:34.285Z,25.3
2018-05-02T15:14:28.868Z,25.2
2018-05-02T15:19:23.263Z,25.2
2018-05-02T15:24:17.531Z,25.1
2018-05-02T15:29:11.637Z,25.1
2018-05-02T15:34:06.246Z,25
2018-05-02T15:39:00.426Z,24.9
2018-05-02T15:43:54.642Z,24.8
2018-05-02T15:48:48.904Z,24.9
2018-05-02T15:53:43.312Z,24.8
2018-05-02T15:58:37.861Z,24.7
2018-05-02T16:03:31.978Z,24.7
2018-05-02T16:08:26.139Z,24.6
2018-05-02T16:13:20.346Z,24.6
2018-05-02T16:18:14.708Z,24.6
2018-05-02T16:23:09.058Z,24.5
2018-05-02T16:28:03.488Z,24.5
2018-05-02T16:32:57.777Z,24.4
2018-05-02T16:37:52.484Z,24.5
2018-05-02T16:42:46.514Z,24.4
2018-05-02T16:47:40.915Z,24.4
2018-05-02T16:52:34.956Z,24.3
2018-05-02T16:57:28.814Z,24.2
2018-05-02T17:02:22.841Z,24.2
2018-05-02T17:07:16.974Z,24.1
2018-05-02T17:12:11.223Z,24
2018-05-02T17:17:05.220Z,23.9
2018-05-02T17:22:00.049Z,23.9
2018-05-02T17:26:54.629Z,23.9
2018-05-02T17:31:49.197Z,23.8
2018-05-02T17:36:42.802Z,23.7
2018-05-02T17:41:36.770Z,23.5
2018-05-02T17:46:30.958Z,23.4
2018-05-02T17:51:25.256Z,23.3
2018-05-02T17:56:19.839Z,23.3
2018-05-02T18:01:13.953Z,23.1
2018-05-02T18:06:08.742Z,23.1
2018-05-02T18:11:02.855Z,23
2018-05-02T18:15:56.592Z,22.9
2018-05-02T18:20:51.141Z,22.9
2018-05-02T18:25:45.641Z,22.8
2018-05-02T18:30:40.305Z,22.7
2018-05-02T18:35:34.315Z,22.6
2018-05-02T18:40:29.215Z,22.5
2018-05-02T18:45:23.730Z,22.6
2018-05-02T18:50:17.988Z,22.5
2018-05-02T18:55:11.813Z,22.4
2018-05-02T19:00:05.720Z,22.3
2018-05-02T19:04:59.901Z,22.3
2018-05-02T19:09:54.286Z,22.2
2018-05-02T19:14:48.565Z,22.2
2018-05-02T19:19:43.023Z,22.1
2018-05-02T19:24:39.776Z,22
2018-05-02T19:29:34.274Z,22.1
2018-05-02T19:34:28.614Z,22
2018-05-02T19:39:22.733Z,21.9
2018-05-02T19:44:16.882Z,21.8
2018-05-02T19:49:11.094Z,21.7
2018-05-02T19:54:05.449Z,21.7
2018-05-02T19:58:59.786Z,21.8
2018-05-02T20:03:53.943Z,21.6
2018-05-02T20:08:48.742Z,21.6
2018-05-02T20:13:42.794Z,21.6
2018-05-02T20:18:36.700Z,21.6
2018-05-02T20:23:31.362Z,21.5
2018-05-02T20:28:25.337Z,21.5
2018-05-02T20:33:19.518Z,21.4
2018-05-02T20:38:13.530Z,21.3
2018-05-02T20:43:08.088Z,21.3
2018-05-02T20:48:02.453Z,21.3
2018-05-02T20:52:56.335Z,21.1
2018-05-02T20:57:50.349Z,21.2
2018-05-02T21:02:44.368Z,21.1
2018-05-02T21:07:38.301Z,21
2018-05-02T21:12:32.488Z,21
2018-05-02T21:17:27.062Z,21
2018-05-02T21:22:20.570Z,20.6
2018-05-02T21:27:14.971Z,20.4
2018-05-02T21:32:09.136Z,20.3
2018-05-02T21:37:03.023Z,20
2018-05-02T21:41:57.411Z,20
2018-05-02T21:46:51.625Z,20
2018-05-02T21:51:45.844Z,20
2018-05-02T21:56:40.169Z,19.9
2018-05-02T22:01:34.950Z,19.9
2018-05-02T22:06:28.981Z,19.8
2018-05-02T22:11:22.970Z,19.9
2018-05-02T22:16:17.145Z,19.8
2018-05-02T22:21:10.985Z,19.7
2018-05-02T22:26:05.431Z,19.6
2018-05-02T22:30:59.652Z,19.7
2018-05-02T22:35:53.522Z,19.5
2018-05-02T22:40:47.883Z,19.4
2018-05-02T22:45:41.939Z,19.3
2018-05-02T22:50:36.507Z,19.4
2018-05-02T22:55:30.627Z,19.4
2018-05-02T23:00:24.766Z,19.3
2018-05-02T23:05:19.115Z,19.3
2018-05-02T23:10:13.185Z,19.2
2018-05-02T23:15:07.147Z,19.2
2018-05-02T23:20:01.442Z,19.2
2018-05-02T23:24:55.670Z,19.3
2018-05-02T23:29:49.821Z,19.1
2018-05-02T23:34:44.374Z,19.1
2018-05-02T23:39:39.004Z,19.1
2018-05-02T23:44:33.140Z,19.1
2018-05-02T23:49:27.733Z,19
2018-05-02T23:54:21.583Z,19
2018-05-02T23:59:16.313Z,18.9
